Loftus, United Kingdom
Current Conditions -  °F | °C
As of 7:20 PM on Sunday 21 Dec 2014 (Local Time) from EGNV Reporting Station
Broken Clouds Broken Clouds  
Wind Chill: 55°   Ceiling: 3300
Heat Index: 55°   Visibility: 6mi
Dew Point: 48°   Wind: 22mph
Humidity: 77%   Direction: 250°WSW
Pressure: 29.8"   Gusts: NA
Location:  54.56°N, 0.89°W
Report Text: EGNV 211920Z 25019KT 9999 FEW023 BKN033 13/09 Q1009
Loading
Personal Weather Stations






























Interactive Weather Map New forecast layout! Learn more

10-Day Weather Forecast

Advertisements
Track Severe Weather on mobile